Time;durP1;ratioP1;P1;durP2;ratioP2;P2;SDS_P1;SDS_P2;PMS_P1;PMS_P2;Temp;Humidity;BMP_temperature;BMP_pressure;BME280_temperature;BME280_humidity;BME280_pressure;Samples;Min_cycle;Max_cycle;Signal;HPM_P1;HPM_P2
2021/11/28 00:02:25;;;;;;;27.38;20.42;;;3.70;99.90;;;;;;5079244;28;20044;-64
2021/11/28 00:04:53;;;;;;;27.52;20.92;;;3.70;99.90;;;;;;5085172;28;20040;-64
2021/11/28 00:07:27;;;;;;;29.10;19.88;;;3.70;99.90;;;;;;5081869;28;20039;-64
2021/11/28 00:10:06;;;;;;;36.63;20.98;;;3.70;99.90;;;;;;5086120;28;20488;-64
2021/11/28 00:15:18;;;;;;;26.52;19.35;;;3.70;99.90;;;;;;5084059;28;20055;-64
2021/11/28 00:17:45;;;;;;;40.10;22.75;;;3.70;99.90;;;;;;5077461;28;20180;-64
2021/11/28 00:20:14;;;;;;;28.10;20.65;;;3.70;99.90;;;;;;5084684;28;20047;-64
2021/11/28 00:22:41;;;;;;;42.85;22.38;;;3.70;99.90;;;;;;5078567;28;20070;-64
2021/11/28 00:25:10;;;;;;;47.40;23.60;;;3.70;99.90;;;;;;5086481;28;20036;-64
2021/11/28 00:27:37;;;;;;;46.13;24.13;;;3.70;99.90;;;;;;5076173;28;20043;-64
2021/11/28 00:30:05;;;;;;;32.40;22.35;;;3.60;99.90;;;;;;5088930;28;20071;-64
2021/11/28 00:32:31;;;;;;;29.95;21.83;;;3.60;99.90;;;;;;5085397;28;20040;-64
2021/11/28 00:34:57;;;;;;;39.88;24.02;;;3.60;99.90;;;;;;5079715;28;20069;-64
2021/11/28 00:37:23;;;;;;;32.90;22.27;;;3.50;99.90;;;;;;5081249;28;20032;-64
2021/11/28 00:39:49;;;;;;;28.23;21.05;;;3.50;99.90;;;;;;5080795;28;20476;-64
2021/11/28 00:42:15;;;;;;;33.80;23.33;;;3.50;99.90;;;;;;5081722;28;20032;-64
2021/11/28 00:44:41;;;;;;;40.65;22.73;;;3.50;99.90;;;;;;5077310;28;20045;-64
2021/11/28 00:47:08;;;;;;;48.72;26.27;;;3.40;99.90;;;;;;5088378;28;20036;-64
2021/11/28 00:49:36;;;;;;;31.70;24.58;;;3.40;99.90;;;;;;5078836;28;20495;-64
2021/11/28 00:52:02;;;;;;;33.47;21.50;;;3.40;99.90;;;;;;5081584;28;20069;-64
2021/11/28 00:54:29;;;;;;;36.00;21.92;;;3.40;99.90;;;;;;5080463;28;20464;-64
2021/11/28 00:56:55;;;;;;;31.33;22.88;;;3.30;99.90;;;;;;5085599;28;20397;-64
2021/11/28 00:59:21;;;;;;;35.25;23.38;;;3.30;99.90;;;;;;5078989;28;20043;-64
2021/11/28 01:01:47;;;;;;;32.17;22.42;;;3.30;99.90;;;;;;5087197;28;20484;-64
2021/11/28 01:04:13;;;;;;;36.03;23.42;;;3.30;99.90;;;;;;5086235;28;20085;-64
2021/11/28 01:06:39;;;;;;;61.88;27.67;;;3.30;99.90;;;;;;5087561;28;20031;-64
2021/11/28 01:09:08;;;;;;;61.20;26.17;;;3.30;99.90;;;;;;5082709;28;20446;-65
2021/11/28 01:11:35;;;;;;;61.45;26.10;;;3.30;99.90;;;;;;5087241;28;20035;-64
2021/11/28 01:14:01;;;;;;;57.05;26.20;;;3.30;99.90;;;;;;5090448;28;20122;-64
2021/11/28 01:16:27;;;;;;;65.18;28.15;;;3.30;99.90;;;;;;5082947;28;20176;-64
2021/11/28 01:18:53;;;;;;;37.20;23.40;;;3.20;99.90;;;;;;5089494;28;20085;-64
2021/11/28 01:21:19;;;;;;;38.78;24.60;;;3.20;99.90;;;;;;5081431;28;20044;-64
2021/11/28 01:23:45;;;;;;;33.75;22.77;;;3.20;99.90;;;;;;5088357;28;20413;-64
2021/11/28 01:26:12;;;;;;;38.17;24.02;;;3.20;99.90;;;;;;5083207;28;20093;-64
2021/11/28 01:28:39;;;;;;;41.70;24.77;;;3.20;99.90;;;;;;5087163;28;20060;-64
2021/11/28 01:31:05;;;;;;;38.33;24.77;;;3.20;99.90;;;;;;5084799;28;20044;-64
2021/11/28 01:33:31;;;;;;;42.22;24.67;;;3.20;99.90;;;;;;5091192;28;20051;-64
2021/11/28 01:35:57;;;;;;;37.47;22.05;;;3.10;99.90;;;;;;5078481;28;20411;-64
2021/11/28 01:38:22;;;;;;;49.00;23.70;;;3.10;99.90;;;;;;5089937;28;20832;-64
2021/11/28 01:40:50;;;;;;;55.33;23.02;;;3.10;99.90;;;;;;5083394;28;20047;-65
2021/11/28 01:43:17;;;;;;;33.92;21.15;;;3.10;99.90;;;;;;5083762;28;20051;-65
2021/11/28 01:45:45;;;;;;;39.97;21.40;;;3.10;99.90;;;;;;5082495;28;20476;-65
2021/11/28 01:48:13;;;;;;;60.72;25.13;;;3.00;99.90;;;;;;5088939;28;20058;-65
2021/11/28 01:50:42;;;;;;;97.80;28.73;;;3.00;99.90;;;;;;5087615;28;20043;-65
2021/11/28 01:53:12;;;;;;;59.90;24.35;;;3.00;99.90;;;;;;5085946;28;20051;-65
2021/11/28 01:55:38;;;;;;;38.30;22.02;;;3.00;99.90;;;;;;5086841;28;20028;-65
2021/11/28 01:58:06;;;;;;;38.63;22.33;;;3.00;99.90;;;;;;5083556;28;20032;-65
2021/11/28 02:00:35;;;;;;;64.30;25.40;;;3.00;99.90;;;;;;5091078;28;20035;-65
2021/11/28 02:03:01;;;;;;;94.43;27.10;;;3.00;99.90;;;;;;5081324;28;20046;-65
2021/11/28 02:05:29;;;;;;;53.13;23.90;;;3.00;99.90;;;;;;5087574;28;20024;-65
2021/11/28 02:07:56;;;;;;;38.25;20.98;;;3.00;99.90;;;;;;5080526;28;20115;-65
2021/11/28 02:10:22;;;;;;;37.33;21.48;;;2.90;99.90;;;;;;5085784;28;20035;-65
2021/11/28 02:12:49;;;;;;;40.03;22.50;;;2.90;99.90;;;;;;5083064;28;20111;-65
2021/11/28 02:15:17;;;;;;;48.63;24.05;;;2.90;99.90;;;;;;5090807;28;20051;-65
2021/11/28 02:17:44;;;;;;;37.33;21.27;;;2.90;99.90;;;;;;5080221;28;20042;-65
2021/11/28 02:20:10;;;;;;;36.15;21.70;;;2.90;99.90;;;;;;5087488;28;20036;-65
2021/11/28 02:22:40;;;;;;;36.72;22.05;;;2.90;99.90;;;;;;5083894;28;20426;-65
2021/11/28 02:25:08;;;;;;;44.45;22.95;;;2.80;99.90;;;;;;5083726;28;20074;-65
2021/11/28 02:27:34;;;;;;;62.83;24.98;;;2.90;99.90;;;;;;5081938;28;20403;-65
2021/11/28 02:30:00;;;;;;;50.40;24.65;;;2.90;99.90;;;;;;5087610;28;20097;-65
2021/11/28 02:32:26;;;;;;;85.05;26.33;;;2.80;99.90;;;;;;5083175;28;20044;-65
2021/11/28 02:34:52;;;;;;;57.03;24.88;;;2.80;99.90;;;;;;5085118;28;20068;-65
2021/11/28 02:37:18;;;;;;;52.85;24.60;;;2.80;99.90;;;;;;5085086;28;20070;-65
2021/11/28 02:39:43;;;;;;;80.90;25.70;;;2.80;99.90;;;;;;5082916;28;20094;-65
2021/11/28 02:42:09;;;;;;;49.58;23.17;;;2.80;99.90;;;;;;5086530;28;20036;-66
2021/11/28 02:44:35;;;;;;;47.10;23.90;;;2.80;99.90;;;;;;5079500;28;20040;-65
2021/11/28 02:47:02;;;;;;;40.50;22.83;;;2.80;99.90;;;;;;5088125;28;20044;-65
2021/11/28 02:49:28;;;;;;;41.13;21.77;;;2.80;99.90;;;;;;5080648;28;20043;-65
2021/11/28 02:51:54;;;;;;;41.80;22.70;;;2.80;99.90;;;;;;5083571;28;20040;-65
2021/11/28 02:54:20;;;;;;;36.13;22.02;;;2.90;99.90;;;;;;5057082;28;20049;-65
2021/11/28 02:56:47;;;;;;;54.10;23.13;;;2.80;99.90;;;;;;5087321;28;20067;-65
2021/11/28 02:59:13;;;;;;;74.50;26.30;;;2.80;99.90;;;;;;5081915;28;20365;-65
2021/11/28 03:01:39;;;;;;;39.00;21.83;;;2.80;99.90;;;;;;5086316;28;20487;-65
2021/11/28 03:04:05;;;;;;;67.30;24.27;;;2.80;99.90;;;;;;5080053;28;20123;-65
2021/11/28 03:06:31;;;;;;;53.40;22.10;;;2.80;99.90;;;;;;5086503;28;20032;-65
2021/11/28 03:08:57;;;;;;;37.65;21.60;;;2.80;99.90;;;;;;5081660;28;20040;-65
2021/11/28 03:11:22;;;;;;;42.47;20.73;;;2.80;99.90;;;;;;5085126;28;20044;-65
2021/11/28 03:13:51;;;;;;;105.32;27.25;;;2.80;99.90;;;;;;5086897;28;20108;-65
2021/11/28 03:16:23;;;;;;;68.38;24.23;;;2.80;99.90;;;;;;5079188;28;20104;-65
2021/11/28 03:18:50;;;;;;;66.68;24.67;;;2.80;99.90;;;;;;5083158;28;20040;-65
2021/11/28 03:21:21;;;;;;;39.78;21.98;;;2.90;99.90;;;;;;5079829;28;20032;-65
2021/11/28 03:23:49;;;;;;;42.78;23.30;;;2.80;99.90;;;;;;5089295;28;20032;-65
2021/11/28 03:26:35;;;;;;;66.88;25.17;;;2.90;99.90;;;;;;5076178;28;20134;-65
2021/11/28 03:29:18;;;;;;;45.58;24.17;;;2.90;99.90;;;;;;5081304;28;20103;-65
2021/11/28 03:31:48;;;;;;;96.07;28.58;;;2.90;99.90;;;;;;5078190;28;20135;-65
2021/11/28 03:34:15;;;;;;;69.53;26.95;;;2.90;99.90;;;;;;5086763;28;20138;-65
2021/11/28 03:36:52;;;;;;;63.28;26.35;;;2.90;99.90;;;;;;5080005;28;20092;-65
2021/11/28 03:39:21;;;;;;;48.33;23.58;;;3.00;99.90;;;;;;5084497;28;20079;-65
2021/11/28 03:41:49;;;;;;;56.22;25.42;;;3.00;99.90;;;;;;5083436;28;20621;-65
2021/11/28 03:44:14;;;;;;;44.25;25.70;;;3.00;99.90;;;;;;5085717;28;20132;-65
2021/11/28 03:46:40;;;;;;;36.72;22.60;;;3.00;99.90;;;;;;5080883;28;20563;-65
2021/11/28 03:49:06;;;;;;;49.30;23.92;;;3.00;99.90;;;;;;5080659;28;20047;-65
2021/11/28 03:51:32;;;;;;;37.95;23.15;;;3.00;99.90;;;;;;5082640;28;20733;-65
2021/11/28 03:53:58;;;;;;;41.90;23.17;;;3.00;99.90;;;;;;5083797;28;20472;-65
2021/11/28 03:56:24;;;;;;;41.38;22.73;;;3.00;99.90;;;;;;5081847;28;20123;-65
2021/11/28 03:58:51;;;;;;;50.20;25.23;;;3.00;99.90;;;;;;5083968;28;20111;-65
2021/11/28 04:01:18;;;;;;;39.53;23.13;;;3.00;99.90;;;;;;5078859;28;21116;-65
2021/11/28 04:03:44;;;;;;;76.63;28.40;;;3.00;99.90;;;;;;5085647;28;20052;-64
2021/11/28 04:06:11;;;;;;;46.80;23.70;;;3.00;99.90;;;;;;5077121;28;20366;-65
2021/11/28 04:08:37;;;;;;;44.78;24.13;;;3.00;99.90;;;;;;5087752;28;20067;-65
2021/11/28 04:11:03;;;;;;;47.00;23.77;;;3.00;99.90;;;;;;5086024;28;20044;-65
2021/11/28 04:13:29;;;;;;;48.90;24.27;;;2.90;99.90;;;;;;5080017;28;20035;-65
2021/11/28 04:15:55;;;;;;;43.83;22.30;;;2.90;99.90;;;;;;5080920;28;20118;-65
2021/11/28 04:18:21;;;;;;;50.40;24.48;;;2.80;99.90;;;;;;5079313;28;20407;-65
2021/11/28 04:20:49;;;;;;;39.72;21.60;;;2.80;99.90;;;;;;5086209;28;20464;-65
2021/11/28 04:23:15;;;;;;;39.40;21.67;;;2.70;99.90;;;;;;5078144;28;20440;-65
2021/11/28 04:25:41;;;;;;;49.95;22.75;;;2.60;99.90;;;;;;5084145;28;20055;-65
2021/11/28 04:28:08;;;;;;;43.28;22.23;;;2.60;99.90;;;;;;5080527;28;20036;-65
2021/11/28 04:30:34;;;;;;;32.60;20.63;;;2.50;99.90;;;;;;5084107;28;20036;-65
2021/11/28 04:33:00;;;;;;;35.78;21.33;;;2.40;99.90;;;;;;5080326;28;20036;-65
2021/11/28 04:35:26;;;;;;;48.95;22.67;;;2.40;99.90;;;;;;5088196;28;20032;-67
2021/11/28 04:37:52;;;;;;;53.65;22.98;;;2.30;99.90;;;;;;5082360;28;20039;-65
2021/11/28 04:40:18;;;;;;;41.40;20.52;;;2.20;99.90;;;;;;5084923;28;21032;-65
2021/11/28 04:42:44;;;;;;;42.13;20.10;;;2.20;99.90;;;;;;5083210;28;20094;-65
2021/11/28 04:45:11;;;;;;;33.72;19.38;;;2.10;99.90;;;;;;5091485;28;20093;-65
2021/11/28 04:47:38;;;;;;;35.67;20.30;;;2.00;99.90;;;;;;5083128;28;20403;-65
2021/11/28 04:50:06;;;;;;;43.28;21.65;;;1.90;99.90;;;;;;5086836;28;20476;-65
2021/11/28 04:52:32;;;;;;;55.20;22.17;;;1.80;99.90;;;;;;5088910;28;20515;-65
2021/11/28 04:54:57;;;;;;;27.45;18.55;;;1.80;99.90;;;;;;5081236;28;20625;-65
2021/11/28 04:57:23;;;;;;;30.88;19.48;;;1.70;99.90;;;;;;5087322;28;20040;-65
2021/11/28 04:59:49;;;;;;;39.90;21.30;;;1.60;99.90;;;;;;5081773;28;20035;-65
2021/11/28 05:02:15;;;;;;;35.17;20.25;;;1.60;99.90;;;;;;5088860;28;20051;-65
2021/11/28 05:04:41;;;;;;;58.70;24.02;;;1.60;99.90;;;;;;5082233;28;20126;-65
2021/11/28 05:07:07;;;;;;;49.05;21.83;;;1.50;99.90;;;;;;5088257;28;20411;-64
2021/11/28 05:09:32;;;;;;;48.75;22.33;;;1.50;99.90;;;;;;5085381;28;20122;-64
2021/11/28 05:11:58;;;;;;;34.30;21.17;;;1.40;99.90;;;;;;5086869;28;20050;-64
2021/11/28 05:14:24;;;;;;;43.00;21.92;;;1.40;99.90;;;;;;5080918;28;20379;-64
2021/11/28 05:16:50;;;;;;;46.58;20.98;;;1.40;99.90;;;;;;5089845;28;20043;-64
2021/11/28 05:19:16;;;;;;;50.38;22.55;;;1.30;99.90;;;;;;5084021;28;20035;-64
2021/11/28 05:21:43;;;;;;;34.38;19.13;;;1.30;99.90;;;;;;5088020;28;20054;-65
2021/11/28 05:24:09;;;;;;;32.35;18.92;;;1.20;99.90;;;;;;5080758;28;20472;-65
2021/11/28 05:26:35;;;;;;;35.67;19.08;;;1.10;99.90;;;;;;5093953;28;20039;-64
2021/11/28 05:29:01;;;;;;;32.55;18.63;;;1.10;99.90;;;;;;5067713;28;20101;-64
2021/11/28 05:31:26;;;;;;;30.60;17.42;;;1.10;99.90;;;;;;5081951;28;20391;-64
2021/11/28 05:33:53;;;;;;;38.42;21.58;;;1.10;99.90;;;;;;5088533;28;20081;-64
2021/11/28 05:36:18;;;;;;;46.80;22.50;;;1.00;99.90;;;;;;5082136;28;20090;-64
2021/11/28 05:38:45;;;;;;;64.22;24.20;;;1.00;99.90;;;;;;5086198;28;20033;-64
2021/11/28 05:41:11;;;;;;;52.88;22.33;;;0.90;99.90;;;;;;5085294;28;20438;-65
2021/11/28 05:43:39;;;;;;;59.17;23.77;;;0.90;99.90;;;;;;5087467;28;20050;-64
2021/11/28 05:46:05;;;;;;;173.65;27.67;;;0.90;99.90;;;;;;5079072;28;20406;-64
2021/11/28 05:48:32;;;;;;;58.90;22.45;;;0.90;99.90;;;;;;5088940;28;20028;-64
2021/11/28 05:50:58;;;;;;;34.22;19.55;;;0.80;99.90;;;;;;5082804;28;20047;-64
2021/11/28 05:53:24;;;;;;;42.22;19.77;;;0.70;99.90;;;;;;5088722;28;20036;-64
2021/11/28 05:55:50;;;;;;;45.03;21.52;;;0.70;99.90;;;;;;5083226;28;20044;-64
2021/11/28 05:58:16;;;;;;;35.08;19.70;;;0.70;99.90;;;;;;5084240;28;20384;-64
2021/11/28 06:00:42;;;;;;;49.05;22.23;;;0.70;99.90;;;;;;5081024;28;20112;-64
2021/11/28 06:03:08;;;;;;;61.92;23.35;;;0.60;99.90;;;;;;5079146;28;20395;-64
2021/11/28 06:05:35;;;;;;;53.53;23.48;;;0.60;99.90;;;;;;5083567;28;20469;-64
2021/11/28 06:08:00;;;;;;;55.85;24.52;;;0.60;99.90;;;;;;5088261;28;20028;-64
2021/11/28 06:10:26;;;;;;;48.65;23.48;;;0.60;99.90;;;;;;5087896;28;20389;-64
2021/11/28 06:12:52;;;;;;;47.83;21.95;;;0.60;99.90;;;;;;5079916;28;20036;-63
2021/11/28 06:15:17;;;;;;;52.42;23.75;;;0.60;99.90;;;;;;5089035;28;20041;-63
2021/11/28 06:17:43;;;;;;;61.42;24.15;;;0.60;99.90;;;;;;5082747;28;20044;-64
2021/11/28 06:20:09;;;;;;;59.67;25.08;;;0.60;99.90;;;;;;5087248;28;20484;-64
2021/11/28 06:22:36;;;;;;;66.63;24.27;;;0.50;99.90;;;;;;5077700;28;20044;-64
2021/11/28 06:25:03;;;;;;;75.60;26.23;;;0.50;99.90;;;;;;5087827;28;20059;-64
2021/11/28 06:27:29;;;;;;;86.88;24.92;;;0.50;99.90;;;;;;5081443;28;20419;-64
2021/11/28 06:29:55;;;;;;;60.17;23.42;;;0.40;99.90;;;;;;5084912;28;20048;-64
2021/11/28 06:32:20;;;;;;;38.28;19.88;;;0.50;99.90;;;;;;5079462;28;20484;-64
2021/11/28 06:34:46;;;;;;;41.10;21.95;;;0.40;99.90;;;;;;5084747;28;20086;-64
2021/11/28 06:37:12;;;;;;;55.03;23.10;;;0.40;99.90;;;;;;5078441;28;20032;-64
2021/11/28 06:39:38;;;;;;;51.40;24.25;;;0.40;99.90;;;;;;5085137;28;20047;-64
2021/11/28 06:42:04;;;;;;;78.03;27.60;;;0.40;99.90;;;;;;5078615;28;20061;-64
2021/11/28 06:44:30;;;;;;;60.50;26.10;;;0.40;99.90;;;;;;5083577;28;20040;-64
2021/11/28 06:46:56;;;;;;;75.35;27.45;;;0.40;99.90;;;;;;5081208;28;20532;-64
2021/11/28 06:49:24;;;;;;;61.80;25.83;;;0.50;99.90;;;;;;5080251;28;20119;-64
2021/11/28 06:51:50;;;;;;;66.40;25.75;;;0.50;99.90;;;;;;5083397;28;20047;-64
2021/11/28 06:54:16;;;;;;;65.85;25.58;;;0.50;99.90;;;;;;5073665;28;20081;-64
2021/11/28 06:56:41;;;;;;;79.07;27.60;;;0.60;99.90;;;;;;5079860;28;20089;-64
2021/11/28 06:59:08;;;;;;;73.53;26.63;;;0.60;99.90;;;;;;5075843;28;20122;-64
2021/11/28 07:01:34;;;;;;;78.88;26.65;;;0.60;99.90;;;;;;5081024;28;20032;-64
2021/11/28 07:03:59;;;;;;;68.32;25.17;;;0.60;99.90;;;;;;5076001;28;20050;-64
2021/11/28 07:06:25;;;;;;;73.97;26.52;;;0.60;99.90;;;;;;5082378;28;20047;-64
2021/11/28 07:08:50;;;;;;;57.58;25.35;;;0.60;99.90;;;;;;5078651;28;20043;-65
2021/11/28 07:11:16;;;;;;;91.70;28.55;;;0.60;99.90;;;;;;5081063;28;20051;-65
2021/11/28 07:13:42;;;;;;;89.25;28.65;;;0.60;99.90;;;;;;5074169;28;20079;-65
2021/11/28 07:16:07;;;;;;;80.32;28.65;;;0.60;99.90;;;;;;5085778;28;20040;-65
2021/11/28 07:18:33;;;;;;;72.43;25.85;;;0.70;99.90;;;;;;5078064;28;20419;-65
2021/11/28 07:20:59;;;;;;;49.75;24.02;;;0.60;99.90;;;;;;5084118;28;20035;-65
2021/11/28 07:23:25;;;;;;;68.40;28.02;;;0.70;99.90;;;;;;5084354;28;20069;-65
2021/11/28 07:25:50;;;;;;;82.15;28.55;;;0.70;99.90;;;;;;5078113;28;20040;-65
2021/11/28 07:28:16;;;;;;;93.90;28.98;;;0.70;99.90;;;;;;5081608;28;20066;-65
2021/11/28 07:30:42;;;;;;;139.30;32.40;;;0.70;99.90;;;;;;5079341;28;20038;-65
2021/11/28 07:33:08;;;;;;;157.90;32.28;;;0.80;99.90;;;;;;5084609;28;20037;-65
2021/11/28 07:35:34;;;;;;;81.35;28.83;;;0.80;99.90;;;;;;5079635;28;20044;-65
2021/11/28 07:38:00;;;;;;;76.10;27.77;;;0.90;99.90;;;;;;5082485;28;20105;-65
2021/11/28 07:40:26;;;;;;;91.07;30.80;;;0.90;99.90;;;;;;5077591;28;20035;-65
2021/11/28 07:42:51;;;;;;;208.13;39.28;;;1.00;99.90;;;;;;5083371;28;20962;-65
2021/11/28 07:45:17;;;;;;;152.43;34.38;;;1.00;99.90;;;;;;5074973;28;20052;-65
2021/11/28 07:47:43;;;;;;;131.23;34.25;;;1.10;99.90;;;;;;5086594;28;20043;-65
2021/11/28 07:50:10;;;;;;;113.30;32.75;;;1.10;99.90;;;;;;5081919;28;20480;-65
2021/11/28 07:52:36;;;;;;;201.15;38.20;;;1.20;99.90;;;;;;5081996;28;20089;-64
2021/11/28 07:55:04;;;;;;;89.50;31.17;;;1.20;99.90;;;;;;5082496;28;20499;-64
2021/11/28 07:57:29;;;;;;;87.28;31.15;;;1.20;99.90;;;;;;5082571;28;20059;-64
2021/11/28 07:59:55;;;;;;;79.97;27.75;;;1.30;99.90;;;;;;5088752;28;20068;-65
2021/11/28 08:02:21;;;;;;;100.38;32.40;;;1.40;99.90;;;;;;5080948;28;20039;-65
2021/11/28 08:04:48;;;;;;;86.97;30.13;;;1.40;99.90;;;;;;5089026;28;20076;-65
2021/11/28 08:07:14;;;;;;;112.72;31.00;;;1.50;99.90;;;;;;5083344;28;20426;-65
2021/11/28 08:09:40;;;;;;;110.75;31.65;;;1.50;99.90;;;;;;5089358;28;20073;-65
2021/11/28 08:12:06;;;;;;;103.20;30.38;;;1.50;99.90;;;;;;5082800;28;20039;-65
2021/11/28 08:14:32;;;;;;;147.98;33.28;;;1.60;99.90;;;;;;5086615;28;20130;-65
2021/11/28 08:16:58;;;;;;;86.90;28.42;;;1.60;99.90;;;;;;5085853;28;20051;-65
2021/11/28 08:19:23;;;;;;;63.72;25.15;;;1.70;99.90;;;;;;5091794;28;20032;-65
2021/11/28 08:21:49;;;;;;;97.65;29.15;;;1.70;99.90;;;;;;5080392;28;20036;-65
2021/11/28 08:24:15;;;;;;;78.13;27.08;;;1.70;99.90;;;;;;5089157;28;20106;-65
2021/11/28 08:26:41;;;;;;;86.18;27.23;;;1.80;99.90;;;;;;5083161;28;20059;-65
2021/11/28 08:29:08;;;;;;;84.07;28.70;;;1.80;99.90;;;;;;5079152;28;20048;-65
2021/11/28 08:31:35;;;;;;;146.95;31.42;;;1.90;99.90;;;;;;5083197;28;20028;-65
2021/11/28 08:34:01;;;;;;;107.45;29.13;;;1.90;99.90;;;;;;5089669;28;20048;-65
2021/11/28 08:36:27;;;;;;;266.20;36.42;;;1.90;99.90;;;;;;5078039;28;20111;-65
2021/11/28 08:38:55;;;;;;;124.57;29.15;;;2.00;99.90;;;;;;5088283;28;20154;-65
2021/11/28 08:41:22;;;;;;;206.95;34.47;;;2.10;99.90;;;;;;5084688;28;20122;-65
2021/11/28 08:43:50;;;;;;;77.60;25.98;;;2.20;99.90;;;;;;5079086;28;20574;-64
2021/11/28 08:46:18;;;;;;;74.00;25.40;;;2.20;99.90;;;;;;5091134;28;20047;-65
2021/11/28 08:51:25;;;;;;;74.05;24.33;;;2.30;99.90;;;;;;5154408;22;20053;-65
2021/11/28 08:53:58;;;;;;;65.97;23.67;;;2.40;99.90;;;;;;4992232;28;20076;-65
2021/11/28 08:56:29;;;;;;;80.70;24.60;;;2.50;99.90;;;;;;5009904;28;20481;-65
2021/11/28 08:58:57;;;;;;;63.40;23.45;;;2.50;99.90;;;;;;5000299;28;20061;-65
2021/11/28 09:01:23;;;;;;;99.18;24.73;;;2.60;99.90;;;;;;5008847;28;20073;-65
2021/11/28 09:03:49;;;;;;;96.53;24.42;;;2.60;99.90;;;;;;5001523;28;20400;-64
2021/11/28 09:06:15;;;;;;;41.20;19.58;;;2.70;99.90;;;;;;5008000;28;20034;-64
2021/11/28 09:08:40;;;;;;;43.05;19.02;;;2.70;99.90;;;;;;5004423;28;20046;-64
2021/11/28 09:11:07;;;;;;;38.85;18.77;;;2.70;99.90;;;;;;4994404;28;20060;-64
2021/11/28 09:13:34;;;;;;;32.60;17.42;;;2.80;99.90;;;;;;5002045;28;20152;-64
2021/11/28 09:16:01;;;;;;;38.20;17.52;;;2.90;99.90;;;;;;5013244;28;20463;-64
2021/11/28 09:18:33;;;;;;;34.55;15.35;;;3.00;99.90;;;;;;5001110;28;20040;-64
2021/11/28 09:21:00;;;;;;;40.00;16.15;;;3.10;99.90;;;;;;5007427;28;20045;-64
2021/11/28 09:26:11;;;;;;;19.48;10.50;;;3.40;99.90;;;;;;5006845;28;20077;-64
2021/11/28 09:28:38;;;;;;;16.85;9.70;;;3.50;99.90;;;;;;5001838;28;20444;-64
2021/11/28 09:31:06;;;;;;;15.48;9.25;;;3.50;99.90;;;;;;5013010;28;20405;-63
2021/11/28 09:33:31;;;;;;;13.55;8.68;;;3.60;99.90;;;;;;5008285;28;20441;-64
2021/11/28 09:35:57;;;;;;;17.63;9.30;;;3.60;99.90;;;;;;5005174;28;20038;-64
2021/11/28 09:38:23;;;;;;;20.75;10.27;;;3.70;99.90;;;;;;5011441;28;20046;-64
2021/11/28 09:40:50;;;;;;;16.38;9.35;;;3.80;99.90;;;;;;5000703;28;20513;-64
2021/11/28 09:43:17;;;;;;;12.75;7.15;;;4.00;99.90;;;;;;4997539;28;20060;-64
2021/11/28 09:45:44;;;;;;;11.43;7.43;;;4.10;99.90;;;;;;5002465;28;20129;-64
2021/11/28 09:48:11;;;;;;;5.75;4.28;;;4.20;99.90;;;;;;5006433;28;20037;-64
2021/11/28 09:50:38;;;;;;;7.93;3.95;;;4.30;99.90;;;;;;5002574;28;20109;-64
2021/11/28 09:53:05;;;;;;;6.88;3.63;;;4.40;99.90;;;;;;5006553;28;20437;-63
2021/11/28 09:55:32;;;;;;;4.43;3.20;;;4.40;99.90;;;;;;5001285;28;20038;-63
2021/11/28 09:57:58;;;;;;;5.72;3.25;;;4.40;99.90;;;;;;5008996;28;20494;-64
2021/11/28 10:00:24;;;;;;;6.53;2.95;;;4.50;99.90;;;;;;5006141;28;20121;-64
2021/11/28 10:02:50;;;;;;;5.05;2.40;;;4.50;99.90;;;;;;5007810;28;20112;-63
2021/11/28 10:05:16;;;;;;;2.90;2.40;;;4.50;99.90;;;;;;4987693;28;20053;-63
2021/11/28 10:07:44;;;;;;;5.68;2.50;;;4.50;99.90;;;;;;5008469;28;20121;-63
2021/11/28 10:10:11;;;;;;;3.28;2.15;;;4.60;99.90;;;;;;5002483;28;20050;-63
2021/11/28 10:12:42;;;;;;;4.13;1.67;;;4.60;99.90;;;;;;5007051;28;20041;-63
2021/11/28 10:15:11;;;;;;;3.45;1.80;;;4.60;99.90;;;;;;5009650;28;20534;-63
2021/11/28 10:17:38;;;;;;;1.88;1.20;;;4.60;99.90;;;;;;5004966;28;20042;-64
2021/11/28 10:20:13;;;;;;;5.00;1.63;;;4.60;99.90;;;;;;5006346;28;20053;-64
2021/11/28 10:22:40;;;;;;;4.57;1.38;;;4.60;99.90;;;;;;5001378;28;20033;-63
2021/11/28 10:25:25;;;;;;;2.20;1.20;;;4.60;99.90;;;;;;5010615;28;20046;-63
2021/11/28 10:27:53;;;;;;;;;;;4.50;99.90;;;;;;5001332;28;20083;-63
2021/11/28 10:30:27;;;;;;;3.15;1.17;;;4.50;99.90;;;;;;5006933;28;19917;-63
2021/11/28 10:32:54;;;;;;;3.60;0.80;;;4.50;99.90;;;;;;5003515;28;20401;-63
2021/11/28 10:35:21;;;;;;;1.52;0.70;;;4.40;99.90;;;;;;5008651;28;20066;-63
2021/11/28 10:37:50;;;;;;;2.75;0.90;;;4.40;99.90;;;;;;5001608;28;20045;-63
2021/11/28 10:40:27;;;;;;;1.38;0.75;;;4.40;99.90;;;;;;4996927;28;20132;-63
2021/11/28 10:43:11;;;;;;;2.03;0.57;;;4.40;99.90;;;;;;5003555;28;20111;-63
2021/11/28 10:45:39;;;;;;;0.73;0.30;;;4.50;99.90;;;;;;5008630;28;20084;-64
2021/11/28 10:48:07;;;;;;;2.40;0.50;;;4.40;99.90;;;;;;5003415;28;20440;-64
2021/11/28 10:50:35;;;;;;;0.47;0.22;;;4.50;99.90;;;;;;5010122;28;20065;-64
2021/11/28 10:53:05;;;;;;;0.50;0.35;;;4.40;99.90;;;;;;5001547;28;20065;-64
2021/11/28 10:55:34;;;;;;;0.45;0.20;;;4.40;99.90;;;;;;5002837;28;20107;-64
2021/11/28 10:58:27;;;;;;;1.38;0.30;;;4.50;99.90;;;;;;4984933;28;20406;-64
2021/11/28 11:00:52;;;;;;;0.95;0.30;;;4.50;99.90;;;;;;5008632;28;20274;-64
2021/11/28 11:03:32;;;;;;;1.77;0.30;;;4.50;99.90;;;;;;5001481;28;20065;-64
2021/11/28 11:06:17;;;;;;;1.73;0.30;;;4.50;99.90;;;;;;5005886;28;20392;-63
2021/11/28 11:08:44;;;;;;;1.42;0.40;;;4.60;99.90;;;;;;5002253;28;20065;-63
2021/11/28 11:11:13;;;;;;;0.60;0.30;;;4.60;99.90;;;;;;5005990;28;20081;-63
2021/11/28 11:14:03;;;;;;;0.52;0.30;;;4.60;99.90;;;;;;4999246;28;20587;-63
2021/11/28 11:16:35;;;;;;;1.77;0.28;;;4.60;99.90;;;;;;4990384;28;20038;-63
2021/11/28 11:19:23;;;;;;;0.95;0.30;;;4.60;99.90;;;;;;5001049;28;20406;-63
2021/11/28 11:22:15;;;;;;;0.55;0.30;;;4.70;99.90;;;;;;4989072;28;20100;-64
2021/11/28 11:24:46;;;;;;;0.30;0.20;;;4.70;99.90;;;;;;4995945;28;20042;-64
2021/11/28 11:27:17;;;;;;;1.77;0.30;;;4.90;99.90;;;;;;4994931;28;20391;-64
2021/11/28 11:29:49;;;;;;;0.25;0.17;;;4.80;99.90;;;;;;4999752;28;20053;-63
2021/11/28 11:32:23;;;;;;;1.48;0.25;;;4.80;99.90;;;;;;5003819;28;20409;-63
2021/11/28 11:34:59;;;;;;;1.55;0.20;;;4.90;99.90;;;;;;4998300;28;20029;-64
2021/11/28 11:37:27;;;;;;;12.90;9.05;;;4.90;99.90;;;;;;4995776;28;20045;-64
2021/11/28 11:39:55;;;;;;;0.85;0.30;;;4.90;99.90;;;;;;5001308;28;20034;-64
2021/11/28 11:42:23;;;;;;;0.43;0.20;;;5.00;99.90;;;;;;4988370;28;20121;-64
2021/11/28 11:44:49;;;;;;;2.15;0.20;;;5.00;99.90;;;;;;4999792;28;20930;-63
2021/11/28 11:47:17;;;;;;;1.60;0.20;;;5.00;99.90;;;;;;5008227;28;20046;-63
2021/11/28 11:49:43;;;;;;;3.10;0.20;;;5.00;99.90;;;;;;4997912;28;20069;-63
2021/11/28 11:52:10;;;;;;;1.20;0.25;;;5.00;99.90;;;;;;5005713;28;20054;-63
2021/11/28 11:54:46;;;;;;;1.75;0.20;;;4.90;99.90;;;;;;5001630;28;20057;-63
2021/11/28 11:57:26;;;;;;;2.58;0.20;;;4.90;99.90;;;;;;5004580;28;20084;-64
2021/11/28 12:00:09;;;;;;;1.52;0.20;;;4.80;99.90;;;;;;4998624;28;20053;-63
2021/11/28 12:02:44;;;;;;;1.17;0.20;;;4.70;99.90;;;;;;5005129;28;20059;-63
2021/11/28 12:05:28;;;;;;;;;;;4.70;99.90;;;;;;5002170;28;20072;-63
2021/11/28 12:08:04;;;;;;;2.13;0.20;;;4.70;99.90;;;;;;5005506;28;19961;-64
2021/11/28 12:10:46;;;;;;;1.27;0.10;;;4.70;99.90;;;;;;5000037;28;20042;-64
2021/11/28 12:13:39;;;;;;;2.75;0.30;;;4.70;99.90;;;;;;5005503;28;20041;-64
2021/11/28 12:16:08;;;;;;;1.60;0.30;;;4.60;99.90;;;;;;5000480;28;20065;-64
2021/11/28 12:18:34;;;;;;;2.75;0.30;;;4.60;99.90;;;;;;5005457;28;21813;-64
2021/11/28 12:21:21;;;;;;;0.95;0.20;;;4.50;99.90;;;;;;5001893;28;20065;-64
2021/11/28 12:24:30;;;;;;;0.95;0.25;;;4.50;99.90;;;;;;5007927;28;20054;-64
2021/11/28 12:27:03;;;;;;;3.75;0.30;;;4.40;99.90;;;;;;4987157;28;20593;-64
2021/11/28 12:29:34;;;;;;;1.92;0.30;;;4.40;99.90;;;;;;5005912;28;20117;-64
2021/11/28 12:32:16;;;;;;;3.00;0.47;;;4.50;99.90;;;;;;4997872;28;20394;-64
2021/11/28 12:34:46;;;;;;;5.47;2.50;;;4.40;99.90;;;;;;5005370;28;20574;-64
2021/11/28 12:37:40;;;;;;;11.57;7.28;;;4.40;99.90;;;;;;5000012;28;20037;-64
2021/11/28 12:40:25;;;;;;;3.17;0.68;;;4.40;99.90;;;;;;4990506;28;20114;-64
2021/11/28 12:42:51;;;;;;;2.10;1.27;;;4.40;99.90;;;;;;4981379;28;20489;-64
2021/11/28 12:45:33;;;;;;;1.58;0.80;;;4.40;99.90;;;;;;4992920;28;20085;-64
2021/11/28 12:48:07;;;;;;;5.18;1.20;;;4.40;99.90;;;;;;4999341;28;20125;-64
2021/11/28 12:50:50;;;;;;;;;;;4.30;99.90;;;;;;4981505;28;20591;-64
2021/11/28 12:53:36;;;;;;;4.20;0.98;;;4.30;99.90;;;;;;5002763;28;19932;-64
2021/11/28 12:56:22;;;;;;;2.33;0.60;;;4.30;99.90;;;;;;5009640;28;20042;-64
2021/11/28 12:59:10;;;;;;;3.78;1.40;;;4.30;99.90;;;;;;5005353;28;20531;-64